Time;durP1;ratioP1;P1;durP2;ratioP2;P2;SDS_P1;SDS_P2;PMS_P1;PMS_P2;Temp;Humidity;BMP_temperature;BMP_pressure;BME280_temperature;BME280_humidity;BME280_pressure;Samples;Min_cycle;Max_cycle;Signal;HPM_P1;HPM_P2
2023/09/14 00:00:42;;;;;;;7.00;6.40;;;17.40;99.90;;;;;;5011838;28;20206;-63
2023/09/14 00:03:07;;;;;;;7.63;7.03;;;17.50;99.90;;;;;;5011686;28;20600;-63
2023/09/14 00:05:42;;;;;;;12.97;9.07;;;17.50;99.90;;;;;;5010961;28;20445;-63
2023/09/14 00:08:07;;;;;;;7.00;6.40;;;17.40;99.90;;;;;;5011830;28;20220;-63
2023/09/14 00:10:33;;;;;;;8.17;7.57;;;17.40;99.90;;;;;;5011777;28;20461;-63
2023/09/14 00:12:59;;;;;;;8.50;7.80;;;17.30;99.90;;;;;;5011935;28;20240;-62
2023/09/14 00:15:25;;;;;;;8.23;7.60;;;17.40;99.90;;;;;;5011907;28;20179;-62
2023/09/14 00:17:51;;;;;;;7.63;7.03;;;17.50;99.90;;;;;;5010772;28;20537;-63
2023/09/14 00:20:22;;;;;;;9.70;8.37;;;17.60;99.90;;;;;;5010354;28;20480;-63
2023/09/14 00:22:50;;;;;;;7.43;6.80;;;17.60;99.90;;;;;;5011713;28;20426;-63
2023/09/14 00:25:20;;;;;;;11.17;8.03;;;17.60;99.90;;;;;;5011743;28;20434;-63
2023/09/14 00:27:46;;;;;;;9.13;8.33;;;17.60;99.90;;;;;;5011911;28;20421;-63
2023/09/14 00:30:12;;;;;;;10.77;7.30;;;17.70;99.90;;;;;;5010327;28;20461;-63
2023/09/14 00:32:42;;;;;;;9.47;8.47;;;17.70;99.90;;;;;;5011290;28;20440;-63
2023/09/14 00:35:09;;;;;;;10.67;9.63;;;17.60;99.90;;;;;;5011660;28;20175;-63
2023/09/14 00:37:35;;;;;;;9.93;9.03;;;17.60;99.90;;;;;;5011433;28;20437;-62
2023/09/14 00:40:06;;;;;;;9.77;8.87;;;17.60;99.90;;;;;;5011400;28;20468;-64
2023/09/14 00:42:38;;;;;;;9.27;8.57;;;17.50;99.90;;;;;;5011174;28;20437;-64
2023/09/14 00:45:05;;;;;;;10.43;9.50;;;17.40;99.90;;;;;;5010677;28;20428;-63
2023/09/14 00:47:31;;;;;;;9.40;8.67;;;17.30;99.90;;;;;;5015323;28;20452;-63
2023/09/14 00:49:56;;;;;;;8.40;7.50;;;17.30;99.90;;;;;;5015026;28;20441;-62
2023/09/14 00:52:22;;;;;;;11.90;10.10;;;17.30;99.90;;;;;;5013917;28;20903;-63
2023/09/14 00:54:48;;;;;;;9.30;8.50;;;17.30;99.90;;;;;;5013682;28;20178;-62
2023/09/14 00:57:13;;;;;;;10.37;8.70;;;17.30;99.90;;;;;;5014802;28;20429;-63
2023/09/14 00:59:39;;;;;;;10.87;9.63;;;17.20;99.90;;;;;;5014599;28;20211;-62
2023/09/14 01:02:05;;;;;;;9.60;8.90;;;17.00;99.90;;;;;;5014899;28;20171;-63
2023/09/14 01:04:30;;;;;;;9.23;8.43;;;17.10;99.90;;;;;;5013457;28;20171;-63
2023/09/14 01:06:56;;;;;;;9.53;8.53;;;17.10;99.90;;;;;;5014680;28;20661;-63
2023/09/14 01:09:22;;;;;;;10.27;9.30;;;17.10;99.90;;;;;;5014642;28;20215;-62
2023/09/14 01:11:47;;;;;;;10.83;9.83;;;17.00;99.90;;;;;;5014629;28;20171;-62
2023/09/14 01:14:16;;;;;;;12.20;11.00;;;16.90;99.90;;;;;;5014228;28;20211;-63
2023/09/14 01:17:08;;;;;;;10.93;9.80;;;17.00;99.90;;;;;;5013521;28;20214;-62
2023/09/14 01:19:33;;;;;;;10.37;9.37;;;17.00;99.90;;;;;;5003665;28;21020;-63
2023/09/14 01:22:32;;;;;;;10.53;9.63;;;16.80;99.90;;;;;;5014439;28;20410;-63
2023/09/14 01:25:04;;;;;;;11.50;10.43;;;16.70;99.90;;;;;;5014237;28;20695;-63
2023/09/14 01:27:30;;;;;;;12.60;11.40;;;16.70;99.90;;;;;;5014426;28;20410;-63
2023/09/14 01:29:57;;;;;;;12.40;10.30;;;16.60;99.90;;;;;;5013203;28;20465;-62
2023/09/14 01:32:24;;;;;;;11.77;10.60;;;16.60;99.90;;;;;;5014239;28;20233;-62
2023/09/14 01:34:50;;;;;;;12.43;11.33;;;16.50;99.90;;;;;;5014441;28;20421;-62
2023/09/14 01:37:16;;;;;;;12.47;11.27;;;16.50;99.90;;;;;;5014233;28;20429;-63
2023/09/14 01:39:42;;;;;;;11.43;10.43;;;16.50;99.90;;;;;;5013811;28;20572;-65
2023/09/14 01:42:08;;;;;;;12.07;10.70;;;16.40;99.90;;;;;;5013552;28;20174;-63
2023/09/14 01:44:34;;;;;;;12.17;11.17;;;16.40;99.90;;;;;;5013636;28;20783;-63
2023/09/14 01:47:00;;;;;;;10.30;9.40;;;16.40;99.90;;;;;;5013986;28;20916;-63
2023/09/14 01:49:26;;;;;;;10.50;9.40;;;16.40;99.90;;;;;;5014289;28;20527;-63
2023/09/14 01:51:52;;;;;;;11.03;9.93;;;16.40;99.90;;;;;;5012953;28;20509;-62
2023/09/14 01:54:18;;;;;;;13.17;11.60;;;16.50;99.90;;;;;;5010592;28;20218;-64
2023/09/14 01:56:44;;;;;;;12.10;10.90;;;16.50;99.90;;;;;;5013019;28;20448;-63
2023/09/14 01:59:10;;;;;;;14.07;12.67;;;16.50;99.90;;;;;;5013606;28;20726;-63
2023/09/14 02:01:35;;;;;;;11.77;10.60;;;16.50;99.90;;;;;;5013700;28;20453;-63
2023/09/14 02:04:01;;;;;;;10.00;9.00;;;16.40;99.90;;;;;;5012451;28;20198;-63
2023/09/14 02:06:26;;;;;;;13.10;11.90;;;16.40;99.90;;;;;;5013482;28;20181;-62
2023/09/14 02:08:52;;;;;;;12.10;10.90;;;16.50;99.90;;;;;;5013658;28;20210;-63
2023/09/14 02:11:17;;;;;;;10.70;9.80;;;16.60;99.90;;;;;;5013544;28;20171;-65
2023/09/14 02:13:43;;;;;;;12.80;11.60;;;16.60;99.90;;;;;;5013205;28;20170;-63
2023/09/14 02:16:09;;;;;;;11.80;10.80;;;16.60;99.90;;;;;;5011912;28;20686;-64
2023/09/14 02:18:35;;;;;;;12.57;11.47;;;16.70;99.90;;;;;;5011900;28;20572;-63
2023/09/14 02:21:00;;;;;;;12.87;11.50;;;16.70;99.90;;;;;;5013110;28;20507;-63
2023/09/14 02:23:26;;;;;;;12.00;10.93;;;16.80;99.90;;;;;;5013102;28;20197;-63
2023/09/14 02:25:52;;;;;;;11.67;10.57;;;16.90;99.90;;;;;;5013319;28;20656;-62
2023/09/14 02:28:20;;;;;;;12.63;10.40;;;16.90;99.90;;;;;;5012004;28;20179;-63
2023/09/14 02:30:46;;;;;;;11.77;10.63;;;16.90;99.90;;;;;;5011329;28;20281;-62
2023/09/14 02:33:12;;;;;;;11.80;10.50;;;16.90;99.90;;;;;;5012575;28;20429;-63
2023/09/14 02:35:41;;;;;;;12.00;10.80;;;16.90;99.90;;;;;;5013143;28;20795;-63
2023/09/14 02:38:08;;;;;;;11.20;10.23;;;16.80;99.90;;;;;;5013111;28;20183;-63
2023/09/14 02:40:33;;;;;;;14.53;11.13;;;17.00;99.90;;;;;;5011713;28;20477;-63
2023/09/14 02:42:59;;;;;;;12.50;11.20;;;17.10;99.90;;;;;;5012638;28;20879;-63
2023/09/14 02:45:25;;;;;;;11.40;10.37;;;17.10;99.90;;;;;;5012985;28;20191;-63
2023/09/14 02:47:51;;;;;;;11.33;9.73;;;17.20;99.90;;;;;;5012775;28;20265;-63
2023/09/14 02:50:16;;;;;;;11.23;10.23;;;17.20;99.90;;;;;;5013033;28;20191;-60
2023/09/14 02:52:42;;;;;;;12.47;11.13;;;17.10;99.90;;;;;;5010407;28;20183;-61
2023/09/14 02:55:08;;;;;;;10.57;9.57;;;17.10;99.90;;;;;;5012861;28;20171;-63
2023/09/14 02:57:33;;;;;;;10.33;9.37;;;17.10;99.90;;;;;;5012593;28;20183;-63
2023/09/14 02:59:59;;;;;;;9.90;9.10;;;17.20;99.90;;;;;;5012647;28;20549;-61
2023/09/14 03:02:24;;;;;;;9.93;9.03;;;17.30;99.90;;;;;;5012647;28;20696;-63
2023/09/14 03:04:50;;;;;;;9.77;8.77;;;17.30;99.90;;;;;;5011455;28;20179;-60
2023/09/14 03:07:16;;;;;;;11.07;9.80;;;17.30;99.90;;;;;;5012624;28;20179;-63
2023/09/14 03:09:42;;;;;;;10.60;9.60;;;17.20;99.90;;;;;;5012565;28;20214;-63
2023/09/14 03:12:08;;;;;;;10.53;9.63;;;17.20;99.90;;;;;;5012525;28;20417;-63
2023/09/14 03:14:33;;;;;;;10.20;9.20;;;17.10;99.90;;;;;;5012364;28;20545;-63
2023/09/14 03:16:59;;;;;;;10.77;9.87;;;17.10;99.90;;;;;;5011213;28;20675;-63
2023/09/14 03:19:25;;;;;;;10.80;9.90;;;17.10;99.90;;;;;;5012159;28;20206;-63
2023/09/14 03:21:50;;;;;;;9.83;8.80;;;17.10;99.90;;;;;;5012510;28;20186;-63
2023/09/14 03:24:16;;;;;;;9.47;8.53;;;17.10;99.90;;;;;;5012214;28;20179;-63
2023/09/14 03:26:42;;;;;;;10.37;9.33;;;17.20;99.90;;;;;;5012314;28;20249;-64
2023/09/14 03:29:07;;;;;;;10.63;9.73;;;17.20;99.90;;;;;;5011203;28;20333;-63
2023/09/14 03:31:33;;;;;;;9.30;8.50;;;17.20;99.90;;;;;;5012050;28;20678;-63
2023/09/14 03:33:58;;;;;;;9.43;8.50;;;17.20;99.90;;;;;;5011887;28;20203;-64
2023/09/14 03:36:24;;;;;;;9.90;8.60;;;17.20;99.90;;;;;;5012231;28;20177;-63
2023/09/14 03:38:50;;;;;;;9.80;8.97;;;17.20;99.90;;;;;;5012168;28;20202;-63
2023/09/14 03:41:15;;;;;;;12.17;10.23;;;17.20;99.90;;;;;;5011036;28;20194;-63
2023/09/14 03:43:41;;;;;;;10.33;9.33;;;17.20;99.90;;;;;;5011718;28;20186;-63
2023/09/14 03:46:08;;;;;;;9.37;8.50;;;17.20;99.90;;;;;;5012173;28;20178;-62
2023/09/14 03:48:33;;;;;;;11.40;8.93;;;17.30;99.90;;;;;;5012077;28;20475;-63
2023/09/14 03:51:00;;;;;;;8.70;8.00;;;17.30;99.90;;;;;;5011003;28;20434;-62
2023/09/14 03:53:27;;;;;;;9.77;8.87;;;17.30;99.90;;;;;;5011678;28;20664;-63
2023/09/14 03:55:57;;;;;;;10.60;9.53;;;17.30;99.90;;;;;;5012023;28;20500;-61
2023/09/14 03:58:23;;;;;;;10.83;9.83;;;17.30;99.90;;;;;;5012153;28;20428;-63
2023/09/14 04:00:49;;;;;;;10.90;10.00;;;17.20;99.90;;;;;;5011765;28;20492;-63
2023/09/14 04:03:18;;;;;;;9.60;8.80;;;17.10;99.90;;;;;;5009235;28;20429;-63
2023/09/14 04:05:44;;;;;;;10.50;9.60;;;17.10;99.90;;;;;;5011943;28;20186;-63
2023/09/14 04:08:10;;;;;;;9.87;9.00;;;16.90;99.90;;;;;;5011963;28;20452;-63
2023/09/14 04:10:37;;;;;;;9.70;8.80;;;16.70;99.90;;;;;;5011640;28;20489;-64
2023/09/14 04:13:28;;;;;;;15.33;10.10;;;16.50;99.90;;;;;;5011684;28;20176;-63
2023/09/14 04:15:56;;;;;;;10.40;9.40;;;16.40;99.90;;;;;;5009997;28;20437;-63
2023/09/14 04:18:22;;;;;;;9.70;8.90;;;16.30;99.90;;;;;;5009375;28;20424;-63
2023/09/14 04:20:48;;;;;;;10.33;9.20;;;16.30;99.90;;;;;;5013377;28;20469;-62
2023/09/14 04:23:14;;;;;;;11.07;10.17;;;16.30;99.90;;;;;;5015452;28;20792;-62
2023/09/14 04:25:46;;;;;;;11.37;10.00;;;16.30;99.90;;;;;;5015254;28;20417;-63
2023/09/14 04:28:16;;;;;;;11.07;10.07;;;16.30;99.90;;;;;;5014477;28;20436;-63
2023/09/14 04:30:47;;;;;;;10.87;9.83;;;16.30;99.90;;;;;;5007669;28;20503;-62
2023/09/14 04:33:14;;;;;;;10.10;9.10;;;16.30;99.90;;;;;;5015091;28;20417;-63
2023/09/14 04:35:41;;;;;;;9.77;8.97;;;16.20;99.90;;;;;;5015475;28;20460;-63
2023/09/14 04:38:07;;;;;;;11.00;10.00;;;16.20;99.90;;;;;;5015318;28;20475;-62
2023/09/14 04:40:42;;;;;;;9.70;8.83;;;16.20;99.90;;;;;;5012132;28;20465;-63
2023/09/14 04:43:08;;;;;;;10.63;9.60;;;16.30;99.90;;;;;;5013795;28;20520;-63
2023/09/14 04:45:34;;;;;;;10.80;9.80;;;16.30;99.90;;;;;;5015169;28;20453;-63
2023/09/14 04:48:00;;;;;;;11.30;10.20;;;16.30;99.90;;;;;;5015118;28;20417;-63
2023/09/14 04:50:26;;;;;;;9.80;9.00;;;16.20;99.90;;;;;;5014988;28;20201;-63
2023/09/14 04:52:52;;;;;;;10.27;9.37;;;16.20;99.90;;;;;;5013017;28;20440;-62
2023/09/14 04:55:17;;;;;;;10.57;9.07;;;16.10;99.90;;;;;;5014885;28;20783;-64
2023/09/14 04:57:43;;;;;;;9.90;9.07;;;16.00;99.90;;;;;;5014986;28;20297;-63
2023/09/14 05:00:09;;;;;;;10.37;9.47;;;16.00;99.90;;;;;;5014991;28;20531;-63
2023/09/14 05:02:35;;;;;;;9.57;8.77;;;16.00;99.90;;;;;;5014407;28;20170;-66
2023/09/14 05:05:02;;;;;;;11.80;10.27;;;16.20;99.90;;;;;;5013934;28;20444;-63
2023/09/14 05:07:27;;;;;;;9.87;9.07;;;16.30;99.90;;;;;;5013579;28;20445;-62
2023/09/14 05:09:53;;;;;;;9.13;8.33;;;16.30;99.90;;;;;;5015011;28;20461;-66
2023/09/14 05:12:19;;;;;;;10.77;9.77;;;16.30;99.90;;;;;;5014616;28;20171;-66
2023/09/14 05:14:44;;;;;;;8.57;7.87;;;16.20;99.90;;;;;;5014295;28;20171;-66
2023/09/14 05:17:10;;;;;;;9.93;9.13;;;16.30;99.90;;;;;;5012556;28;20194;-65
2023/09/14 05:19:35;;;;;;;9.10;8.30;;;16.40;99.90;;;;;;5014115;28;20206;-66
2023/09/14 05:22:01;;;;;;;9.23;8.33;;;16.50;99.90;;;;;;5014316;28;20530;-66
2023/09/14 05:24:26;;;;;;;9.10;8.30;;;16.60;99.90;;;;;;5014005;28;20171;-64
2023/09/14 05:26:52;;;;;;;8.57;7.60;;;16.70;99.90;;;;;;5013527;28;20179;-66
2023/09/14 05:29:18;;;;;;;9.40;8.50;;;16.70;99.90;;;;;;5014207;28;20206;-65
2023/09/14 05:31:43;;;;;;;7.50;6.80;;;17.00;99.90;;;;;;5013254;28;20540;-65
2023/09/14 05:34:09;;;;;;;9.50;8.90;;;17.20;99.90;;;;;;5014358;28;20175;-65
2023/09/14 05:36:34;;;;;;;9.70;8.47;;;17.50;99.90;;;;;;5014069;28;20653;-66
2023/09/14 05:39:00;;;;;;;7.27;6.67;;;17.70;99.90;;;;;;5012974;28;20198;-66
2023/09/14 05:41:25;;;;;;;7.50;6.80;;;17.90;99.90;;;;;;5013909;28;20167;-64
2023/09/14 05:43:51;;;;;;;7.50;6.80;;;17.90;99.90;;;;;;5013951;28;20383;-66
2023/09/14 05:46:16;;;;;;;8.90;8.10;;;18.10;99.90;;;;;;5014027;28;20171;-66
2023/09/14 05:48:42;;;;;;;7.67;6.80;;;18.20;99.90;;;;;;5013889;28;20167;-66
2023/09/14 05:51:08;;;;;;;8.97;6.70;;;18.30;99.90;;;;;;5011666;28;20268;-65
2023/09/14 05:53:34;;;;;;;7.70;7.20;;;18.40;99.90;;;;;;5012089;28;20469;-66
2023/09/14 05:56:00;;;;;;;7.90;7.20;;;18.50;99.90;;;;;;5013389;28;20202;-66
2023/09/14 05:58:26;;;;;;;9.20;8.10;;;18.60;99.90;;;;;;5013950;28;20458;-65
2023/09/14 06:00:52;;;;;;;9.27;8.47;;;18.60;99.90;;;;;;5014018;28;20203;-66
2023/09/14 06:03:18;;;;;;;8.20;7.50;;;18.60;99.90;;;;;;5013740;28;20912;-63
2023/09/14 06:05:44;;;;;;;8.53;7.83;;;18.60;99.90;;;;;;5011773;28;20175;-64
2023/09/14 06:08:10;;;;;;;9.60;8.70;;;18.60;99.90;;;;;;5013640;28;20791;-65
2023/09/14 06:10:35;;;;;;;8.87;8.17;;;18.70;99.90;;;;;;5013369;28;20465;-66
2023/09/14 06:13:01;;;;;;;8.97;8.07;;;18.70;99.90;;;;;;5013274;28;20578;-66
2023/09/14 06:15:26;;;;;;;8.30;7.50;;;18.80;99.90;;;;;;5012545;28;20167;-66
2023/09/14 06:17:52;;;;;;;9.40;8.43;;;19.10;99.90;;;;;;5013376;28;20178;-66
2023/09/14 06:20:17;;;;;;;10.30;9.30;;;19.20;99.90;;;;;;5013125;28;20197;-66
2023/09/14 06:22:43;;;;;;;8.60;7.77;;;19.30;99.90;;;;;;5013137;28;20186;-65
2023/09/14 06:25:09;;;;;;;7.13;6.53;;;19.40;99.90;;;;;;5013201;28;20198;-66
2023/09/14 06:27:34;;;;;;;9.77;8.87;;;19.60;99.90;;;;;;5012381;28;20191;-66
2023/09/14 06:30:02;;;;;;;8.87;7.70;;;19.60;99.90;;;;;;5012708;28;20190;-66
2023/09/14 06:32:28;;;;;;;12.20;8.10;;;19.70;99.90;;;;;;5004550;28;20183;-66
2023/09/14 06:34:54;;;;;;;7.80;6.40;;;19.60;99.90;;;;;;5011254;28;20438;-65
2023/09/14 06:37:20;;;;;;;7.87;7.07;;;19.60;99.90;;;;;;5012223;28;20433;-65
2023/09/14 06:39:45;;;;;;;10.93;9.83;;;19.50;99.90;;;;;;5010335;28;20273;-66
2023/09/14 06:42:11;;;;;;;11.00;9.90;;;19.60;99.90;;;;;;5012781;28;20923;-65
2023/09/14 06:44:36;;;;;;;11.13;10.03;;;19.50;99.90;;;;;;5012268;28;20255;-66
2023/09/14 06:47:02;;;;;;;12.80;11.60;;;19.40;99.90;;;;;;5012452;28;20209;-65
2023/09/14 06:49:28;;;;;;;13.00;11.73;;;19.40;99.90;;;;;;5010642;28;20735;-65
2023/09/14 06:51:53;;;;;;;12.23;11.07;;;19.30;99.90;;;;;;5003923;28;20207;-65
2023/09/14 06:54:19;;;;;;;12.40;11.30;;;19.20;99.90;;;;;;4995349;28;20214;-68
2023/09/14 06:56:45;;;;;;;12.80;11.60;;;19.00;99.90;;;;;;4993052;28;20175;-67
2023/09/14 06:59:10;;;;;;;12.10;11.10;;;19.10;99.90;;;;;;4992790;28;20270;-67
2023/09/14 07:01:36;;;;;;;12.97;11.73;;;19.20;99.90;;;;;;5005062;28;20193;-66
2023/09/14 07:04:01;;;;;;;12.23;11.20;;;19.20;99.90;;;;;;5011808;28;20171;-67
2023/09/14 07:06:27;;;;;;;11.47;10.47;;;19.20;99.90;;;;;;5011525;28;20210;-67
2023/09/14 07:08:52;;;;;;;12.80;11.73;;;19.10;99.90;;;;;;5012076;28;20194;-67
2023/09/14 07:11:18;;;;;;;10.83;9.83;;;19.00;99.90;;;;;;5010490;28;20183;-68
2023/09/14 07:13:43;;;;;;;12.23;11.10;;;18.80;99.90;;;;;;5012198;28;20216;-67
2023/09/14 07:16:09;;;;;;;12.50;10.83;;;18.70;99.90;;;;;;5012432;28;20179;-67
2023/09/14 07:18:34;;;;;;;11.30;10.20;;;18.80;99.90;;;;;;5012239;28;20175;-67
2023/09/14 07:21:02;;;;;;;13.70;12.00;;;18.90;99.90;;;;;;5010474;28;20202;-67
2023/09/14 07:23:28;;;;;;;13.50;12.13;;;19.00;99.90;;;;;;5011905;28;20216;-67
2023/09/14 07:25:54;;;;;;;11.20;10.10;;;19.00;99.90;;;;;;5012251;28;20433;-67
2023/09/14 07:28:21;;;;;;;10.00;9.00;;;19.00;99.90;;;;;;5012192;28;20421;-67
2023/09/14 07:30:48;;;;;;;10.60;9.70;;;19.10;99.90;;;;;;5010912;28;20203;-67
2023/09/14 07:33:15;;;;;;;10.47;9.47;;;19.20;99.90;;;;;;5011429;28;20426;-67
2023/09/14 07:35:40;;;;;;;8.70;7.70;;;19.20;99.90;;;;;;5012277;28;20457;-67
2023/09/14 07:38:12;;;;;;;9.07;8.37;;;19.30;99.90;;;;;;5012405;28;20495;-67
2023/09/14 07:40:37;;;;;;;10.50;9.60;;;19.20;99.90;;;;;;5012300;28;20326;-66
2023/09/14 07:43:03;;;;;;;12.63;11.53;;;19.20;99.90;;;;;;5010266;28;20528;-67
2023/09/14 07:45:30;;;;;;;11.53;10.43;;;19.10;99.90;;;;;;5012040;28;20198;-66
2023/09/14 07:47:56;;;;;;;11.17;9.17;;;19.10;99.90;;;;;;5010359;28;20179;-66
2023/09/14 07:50:21;;;;;;;10.33;8.63;;;19.30;99.90;;;;;;5010525;28;20471;-66
2023/09/14 07:52:47;;;;;;;9.07;7.40;;;19.70;99.90;;;;;;5011696;28;20179;-66
2023/09/14 07:55:12;;;;;;;12.77;9.50;;;20.50;99.90;;;;;;5011704;28;20194;-67
2023/09/14 07:57:39;;;;;;;10.10;9.20;;;21.10;99.90;;;;;;5016034;28;20179;-66
2023/09/14 08:00:06;;;;;;;10.10;9.27;;;21.00;99.90;;;;;;5015826;28;20238;-67
2023/09/14 08:02:32;;;;;;;11.70;10.50;;;20.70;99.90;;;;;;5015677;28;20421;-66
2023/09/14 08:04:58;;;;;;;11.60;10.60;;;20.40;99.90;;;;;;5015770;28;21012;-67
2023/09/14 08:07:23;;;;;;;13.17;12.00;;;20.20;99.90;;;;;;5014975;28;20437;-66
2023/09/14 08:09:49;;;;;;;11.93;10.73;;;20.00;99.90;;;;;;5015509;28;20249;-67
2023/09/14 08:12:14;;;;;;;12.50;11.20;;;19.90;99.90;;;;;;5015913;28;20668;-66
2023/09/14 08:14:41;;;;;;;11.60;10.60;;;19.80;99.90;;;;;;5015557;28;20175;-66
2023/09/14 08:17:06;;;;;;;11.17;10.17;;;19.80;99.90;;;;;;5015449;28;20248;-67
2023/09/14 08:19:31;;;;;;;11.77;10.87;;;19.70;99.90;;;;;;5014501;28;20974;-66
2023/09/14 08:21:59;;;;;;;10.70;9.80;;;19.60;99.90;;;;;;5015434;28;20257;-66
2023/09/14 08:24:24;;;;;;;13.13;9.47;;;19.40;99.90;;;;;;5015492;28;20167;-67
2023/09/14 08:26:51;;;;;;;11.27;10.37;;;19.60;99.90;;;;;;5015381;28;20441;-67
2023/09/14 08:29:16;;;;;;;11.67;10.60;;;19.70;99.90;;;;;;5015391;28;20689;-67
2023/09/14 08:31:43;;;;;;;11.83;10.60;;;19.50;99.90;;;;;;5014164;28;20437;-67
2023/09/14 08:34:09;;;;;;;9.70;8.80;;;19.60;99.90;;;;;;5014141;28;20198;-67
2023/09/14 08:36:37;;;;;;;10.03;9.13;;;19.70;99.90;;;;;;5015283;28;20907;-66
2023/09/14 08:39:04;;;;;;;10.27;9.47;;;19.70;99.90;;;;;;5015043;28;20193;-67
2023/09/14 08:41:36;;;;;;;10.80;9.77;;;19.90;99.90;;;;;;5015097;28;20472;-67
2023/09/14 08:44:03;;;;;;;10.57;9.57;;;19.90;99.90;;;;;;5012743;28;20495;-67
2023/09/14 08:46:31;;;;;;;10.00;9.20;;;20.00;99.90;;;;;;5014913;28;20425;-67
2023/09/14 08:48:58;;;;;;;11.03;9.97;;;20.00;99.90;;;;;;5006827;28;20438;-67
2023/09/14 08:51:27;;;;;;;7.23;6.60;;;20.20;99.90;;;;;;5014974;28;20433;-67
2023/09/14 08:53:53;;;;;;;7.30;6.60;;;20.60;99.90;;;;;;5014559;28;21134;-67
2023/09/14 08:56:20;;;;;;;8.87;7.87;;;21.20;99.90;;;;;;5013444;28;20464;-65
2023/09/14 08:58:46;;;;;;;9.80;8.93;;;21.50;99.90;;;;;;5014155;28;20504;-67
2023/09/14 09:01:13;;;;;;;10.40;9.40;;;21.60;99.90;;;;;;5014607;28;20636;-67
2023/09/14 09:03:39;;;;;;;8.70;8.00;;;21.50;99.90;;;;;;5014413;28;20175;-67
2023/09/14 09:06:05;;;;;;;10.27;9.17;;;21.40;99.90;;;;;;5014435;28;20417;-67
2023/09/14 09:08:32;;;;;;;10.90;9.87;;;21.40;99.90;;;;;;5013516;28;20207;-67
2023/09/14 09:10:59;;;;;;;10.73;9.63;;;21.30;99.90;;;;;;5014430;28;20442;-67
2023/09/14 09:13:35;;;;;;;10.40;9.40;;;21.50;99.90;;;;;;5013348;28;20438;-66
2023/09/14 09:16:01;;;;;;;9.57;8.63;;;21.40;99.90;;;;;;5014590;28;20868;-67
2023/09/14 09:18:26;;;;;;;9.20;8.40;;;21.50;99.90;;;;;;5010700;28;20532;-67
2023/09/14 09:20:52;;;;;;;9.00;8.20;;;21.50;99.90;;;;;;5014167;28;20549;-67
2023/09/14 09:23:20;;;;;;;9.17;8.37;;;21.70;99.90;;;;;;5013998;28;20177;-67
2023/09/14 09:25:47;;;;;;;8.23;7.43;;;21.80;99.90;;;;;;5014153;28;20175;-67
2023/09/14 09:28:13;;;;;;;12.90;8.60;;;22.00;99.90;;;;;;5014346;28;20414;-67
2023/09/14 09:30:39;;;;;;;8.77;8.07;;;22.20;99.90;;;;;;5013112;28;20958;-67
2023/09/14 09:33:04;;;;;;;8.20;7.50;;;22.40;99.90;;;;;;5013766;28;20179;-67
2023/09/14 09:35:31;;;;;;;8.70;7.90;;;22.60;99.90;;;;;;5014098;28;20171;-67
2023/09/14 09:38:00;;;;;;;8.33;7.60;;;23.00;99.90;;;;;;5014152;28;20179;-67
2023/09/14 09:40:28;;;;;;;9.93;8.97;;;23.10;99.90;;;;;;5012821;28;20461;-65
2023/09/14 09:42:54;;;;;;;9.43;8.00;;;23.30;99.90;;;;;;5011680;28;20440;-67
2023/09/14 09:45:25;;;;;;;7.93;7.27;;;23.30;99.90;;;;;;5012917;28;20442;-67
2023/09/14 09:47:51;;;;;;;6.67;6.17;;;23.60;99.90;;;;;;5014040;28;20984;-67
2023/09/14 09:50:19;;;;;;;7.00;6.30;;;24.00;99.90;;;;;;5013764;28;20453;-67
2023/09/14 09:52:46;;;;;;;7.10;6.50;;;24.30;99.90;;;;;;5012417;28;20499;-67
2023/09/14 09:55:24;;;;;;;6.87;6.33;;;24.80;99.90;;;;;;5013492;28;20440;-67
2023/09/14 09:57:58;;;;;;;8.00;6.53;;;25.30;99.90;;;;;;4994414;28;20925;-67
2023/09/14 10:00:31;;;;;;;7.13;6.53;;;26.50;99.90;;;;;;5003585;28;21086;-67
2023/09/14 10:02:58;;;;;;;6.03;5.43;;;28.60;99.90;;;;;;5013103;28;20504;-65
2023/09/14 10:05:31;;;;;;;5.80;5.30;;;30.30;97.90;;;;;;5013405;28;20422;-65
2023/09/14 10:07:58;;;;;;;7.40;6.70;;;31.50;92.70;;;;;;5012965;28;20854;-65
2023/09/14 10:10:25;;;;;;;6.90;6.40;;;32.30;87.80;;;;;;5012310;28;20469;-67
2023/09/14 10:12:53;;;;;;;7.50;6.90;;;32.60;84.30;;;;;;5009192;28;20422;-67
2023/09/14 10:15:19;;;;;;;6.57;6.17;;;34.10;78.00;;;;;;5002803;28;20878;-67
2023/09/14 10:17:47;;;;;;;5.87;5.47;;;33.50;73.20;;;;;;5000875;28;20433;-67
2023/09/14 10:20:13;;;;;;;5.73;5.23;;;32.50;75.30;;;;;;5012072;28;21002;-67
2023/09/14 10:22:41;;;;;;;5.80;5.37;;;31.70;76.10;;;;;;5011908;28;20465;-65
2023/09/14 10:25:08;;;;;;;5.77;5.27;;;30.60;78.90;;;;;;5012993;28;20517;-66
2023/09/14 10:27:34;;;;;;;6.87;5.80;;;29.70;81.60;;;;;;5013457;28;20788;-67
2023/09/14 10:30:03;;;;;;;5.73;5.23;;;30.90;81.50;;;;;;5013298;28;20434;-67
2023/09/14 10:32:30;;;;;;;6.63;5.67;;;32.60;75.50;;;;;;4998652;28;20237;-67
2023/09/14 10:34:59;;;;;;;6.60;5.97;;;34.10;70.70;;;;;;5002526;28;20446;-68
2023/09/14 10:37:26;;;;;;;5.87;5.47;;;34.40;67.20;;;;;;5012281;28;21029;-68
2023/09/14 10:39:53;;;;;;;5.80;5.30;;;35.10;65.60;;;;;;5012485;28;20462;-68
2023/09/14 10:42:18;;;;;;;6.70;6.20;;;35.90;60.80;;;;;;5012190;28;20831;-66
2023/09/14 10:44:44;;;;;;;4.80;4.50;;;35.10;59.10;;;;;;5012758;28;20433;-67
2023/09/14 10:47:12;;;;;;;5.37;4.97;;;34.80;60.00;;;;;;5010529;28;20688;-68
2023/09/14 10:49:41;;;;;;;5.03;4.63;;;34.90;59.90;;;;;;5012592;28;20495;-67
2023/09/14 10:52:07;;;;;;;4.97;4.47;;;36.10;57.80;;;;;;5012935;28;20446;-66
2023/09/14 10:54:33;;;;;;;5.17;4.60;;;37.00;55.80;;;;;;5012888;28;20460;-68
2023/09/14 10:57:01;;;;;;;4.50;4.10;;;38.10;53.20;;;;;;5012802;28;20206;-67
2023/09/14 10:59:55;;;;;;;5.83;5.43;;;38.90;52.20;;;;;;5010417;28;20492;-67
2023/09/14 11:02:43;;;;;;;4.80;4.40;;;38.80;50.30;;;;;;5003675;28;20790;-67
2023/09/14 11:05:19;;;;;;;5.10;4.70;;;38.10;49.70;;;;;;5009673;28;20441;-71
2023/09/14 11:07:54;;;;;;;4.90;4.23;;;38.30;49.10;;;;;;5009787;28;20457;-70
2023/09/14 11:10:22;;;;;;;4.70;4.30;;;38.20;49.10;;;;;;5012236;28;20469;-70
2023/09/14 11:12:49;;;;;;;4.43;4.13;;;37.50;48.80;;;;;;5012087;28;20472;-70
2023/09/14 11:15:22;;;;;;;5.37;4.97;;;37.30;49.00;;;;;;5012518;28;20456;-71
2023/09/14 11:17:52;;;;;;;5.10;4.70;;;36.70;49.00;;;;;;5012386;28;21032;-71
2023/09/14 11:20:24;;;;;;;5.60;5.10;;;36.60;49.10;;;;;;5010922;28;20461;-71
2023/09/14 11:22:51;;;;;;;5.37;4.90;;;36.90;49.00;;;;;;5012047;28;20440;-71
2023/09/14 11:25:30;;;;;;;4.87;4.13;;;37.30;48.70;;;;;;5012302;28;20425;-71
2023/09/14 11:27:57;;;;;;;5.53;5.13;;;38.60;47.40;;;;;;5012351;28;20425;-71
2023/09/14 11:30:30;;;;;;;5.03;4.73;;;38.60;46.30;;;;;;5009756;28;20541;-71
2023/09/14 11:32:59;;;;;;;4.03;3.83;;;38.40;46.60;;;;;;5010837;28;20480;-71
2023/09/14 11:35:45;;;;;;;3.90;3.50;;;38.80;45.50;;;;;;5012058;28;20417;-71
2023/09/14 11:38:29;;;;;;;4.10;3.80;;;39.30;44.70;;;;;;5012217;28;20832;-71
2023/09/14 11:40:54;;;;;;;3.30;3.10;;;39.00;44.00;;;;;;5005868;28;20461;-71
2023/09/14 11:43:36;;;;;;;4.10;3.80;;;38.80;44.50;;;;;;5011593;28;20418;-71
2023/09/14 11:46:03;;;;;;;4.63;4.23;;;39.50;43.70;;;;;;5012148;28;20199;-71
2023/09/14 11:48:32;;;;;;;5.83;5.13;;;39.30;43.50;;;;;;5009010;28;20444;-71
2023/09/14 11:51:02;;;;;;;4.93;4.40;;;37.80;44.40;;;;;;5011789;28;20473;-71
2023/09/14 11:53:31;;;;;;;5.57;5.17;;;36.30;46.00;;;;;;5011802;28;20846;-71
2023/09/14 11:55:57;;;;;;;5.20;4.80;;;35.60;46.80;;;;;;5011918;28;20426;-71
2023/09/14 11:58:25;;;;;;;6.33;4.60;;;36.10;46.50;;;;;;5010605;28;20596;-71
2023/09/14 12:00:54;;;;;;;5.10;4.73;;;37.30;45.70;;;;;;5011737;28;20739;-71
2023/09/14 12:03:20;;;;;;;5.90;5.47;;;38.20;44.80;;;;;;5011790;28;20417;-71
2023/09/14 12:05:47;;;;;;;5.50;5.00;;;38.70;43.80;;;;;;5011833;28;20840;-71
2023/09/14 12:08:14;;;;;;;4.80;4.50;;;39.30;43.50;;;;;;5011964;28;20460;-71
2023/09/14 12:10:41;;;;;;;5.20;4.83;;;40.10;42.50;;;;;;5009832;28;20835;-70
2023/09/14 12:13:08;;;;;;;4.57;4.17;;;39.40;42.50;;;;;;5005844;28;20492;-69
2023/09/14 12:15:34;;;;;;;5.03;4.53;;;39.10;42.60;;;;;;4995555;28;20970;-70
2023/09/14 12:17:59;;;;;;;4.50;4.20;;;39.00;42.50;;;;;;4992201;28;20459;-70
2023/09/14 12:20:25;;;;;;;5.00;4.70;;;39.70;42.30;;;;;;4999173;28;20580;-70
2023/09/14 12:22:50;;;;;;;4.70;4.30;;;39.60;41.80;;;;;;5011246;28;20163;-70
2023/09/14 12:25:17;;;;;;;3.90;3.70;;;40.00;41.60;;;;;;5011746;28;20171;-70
2023/09/14 12:27:44;;;;;;;4.70;4.23;;;39.60;41.70;;;;;;5011737;28;20167;-70
2023/09/14 12:30:10;;;;;;;3.60;3.40;;;38.80;41.90;;;;;;5011442;28;20935;-69
2023/09/14 12:32:38;;;;;;;4.33;4.03;;;38.60;42.50;;;;;;5010549;28;20465;-70
2023/09/14 12:35:08;;;;;;;8.93;4.37;;;39.10;41.70;;;;;;5011079;28;20453;-70
2023/09/14 12:37:34;;;;;;;3.80;3.50;;;39.80;41.40;;;;;;5011621;28;20505;-70
2023/09/14 12:40:10;;;;;;;6.50;5.03;;;41.00;40.10;;;;;;5011560;28;20564;-67